Time;durP1;ratioP1;P1;durP2;ratioP2;P2;SDS_P1;SDS_P2;PMS_P1;PMS_P2;Temp;Humidity;BMP_temperature;BMP_pressure;BME280_temperature;BME280_humidity;BME280_pressure;Samples;Min_cycle;Max_cycle;Signal;HPM_P1;HPM_P2
2022/10/01 00:00:25;;;;;;;15.68;13.85;;;7.70;99.90;;;;;;5051517;28;20071;-75
2022/10/01 00:02:53;;;;;;;16.23;14.52;;;7.70;99.90;;;;;;5051678;28;20017;-75
2022/10/01 00:05:19;;;;;;;16.10;14.50;;;7.80;99.90;;;;;;5051294;28;20096;-73
2022/10/01 00:07:46;;;;;;;17.85;16.05;;;7.80;99.90;;;;;;5033199;28;20021;-74
2022/10/01 00:10:13;;;;;;;19.65;15.55;;;7.80;99.90;;;;;;5051449;28;20025;-74
2022/10/01 00:12:45;;;;;;;16.38;14.77;;;7.80;99.90;;;;;;5051407;28;20565;-74
2022/10/01 00:15:12;;;;;;;17.27;15.45;;;7.70;99.90;;;;;;5061733;28;20024;-73
2022/10/01 00:17:38;;;;;;;16.63;14.90;;;7.60;99.90;;;;;;5051031;28;20074;-74
2022/10/01 00:20:04;;;;;;;19.50;16.02;;;7.50;99.90;;;;;;5049757;28;20025;-74
2022/10/01 00:22:31;;;;;;;19.50;15.45;;;7.50;99.90;;;;;;5055416;28;20013;-74
2022/10/01 00:24:58;;;;;;;18.15;16.23;;;7.50;99.90;;;;;;5050759;28;20021;-74
2022/10/01 00:27:27;;;;;;;18.02;16.13;;;7.50;99.90;;;;;;5050839;28;20025;-74
2022/10/01 00:29:53;;;;;;;19.23;17.10;;;7.70;99.90;;;;;;5033219;28;20355;-74
2022/10/01 00:32:20;;;;;;;19.50;17.13;;;7.70;99.90;;;;;;5033223;28;20025;-74
2022/10/01 00:34:45;;;;;;;19.02;16.98;;;7.70;99.90;;;;;;5033131;28;20379;-74
2022/10/01 00:37:11;;;;;;;21.10;17.30;;;7.70;99.90;;;;;;5050870;28;20026;-73
2022/10/01 00:39:37;;;;;;;20.05;17.88;;;7.70;99.90;;;;;;5051053;28;20025;-73
2022/10/01 00:42:15;;;;;;;19.80;17.80;;;7.70;99.90;;;;;;5051184;28;20017;-73
2022/10/01 00:44:40;;;;;;;20.35;17.65;;;7.70;99.90;;;;;;5051284;28;20458;-72
2022/10/01 00:47:49;;;;;;;25.23;19.75;;;7.50;99.90;;;;;;5050923;28;20122;-72
2022/10/01 00:50:31;;;;;;;21.10;18.35;;;7.50;99.90;;;;;;5047148;28;20036;-72
2022/10/01 00:53:04;;;;;;;21.25;18.90;;;7.50;99.90;;;;;;5051195;28;20017;-72
2022/10/01 00:55:36;;;;;;;21.73;19.15;;;7.60;99.90;;;;;;5049792;28;20025;-72
2022/10/01 00:58:03;;;;;;;22.75;19.77;;;7.50;99.90;;;;;;5050922;28;20074;-72
2022/10/01 01:00:29;;;;;;;23.10;20.50;;;7.60;99.90;;;;;;5033192;28;20495;-71
2022/10/01 01:02:55;;;;;;;23.50;20.88;;;7.50;99.90;;;;;;5051046;28;20025;-70
2022/10/01 01:05:21;;;;;;;22.80;20.25;;;7.60;99.90;;;;;;5050807;28;20502;-72
2022/10/01 01:07:50;;;;;;;25.20;20.83;;;7.60;99.90;;;;;;5050762;28;20028;-72
2022/10/01 01:10:18;;;;;;;25.50;21.42;;;7.50;99.90;;;;;;5050906;28;20049;-73
2022/10/01 01:13:15;;;;;;;26.35;22.15;;;7.60;99.90;;;;;;5050781;28;20029;-73
2022/10/01 01:16:01;;;;;;;24.20;21.60;;;7.70;99.90;;;;;;4970768;28;20133;-73
2022/10/01 01:18:32;;;;;;;25.58;22.10;;;7.70;99.90;;;;;;5050537;28;20032;-73
2022/10/01 01:21:11;;;;;;;24.20;21.10;;;7.70;99.90;;;;;;5050842;28;20048;-75
2022/10/01 01:23:56;;;;;;;26.38;22.60;;;7.60;99.90;;;;;;5050757;28;20044;-74
2022/10/01 01:26:37;;;;;;;27.15;23.20;;;7.60;99.90;;;;;;5050839;28;20021;-72
2022/10/01 01:29:19;;;;;;;27.02;22.83;;;7.60;99.90;;;;;;5050709;28;20483;-72
2022/10/01 01:31:46;;;;;;;25.75;22.92;;;7.60;99.90;;;;;;5050969;28;20067;-72
2022/10/01 01:34:28;;;;;;;26.65;21.38;;;7.60;99.90;;;;;;5050722;28;20025;-72
2022/10/01 01:37:02;;;;;;;27.30;22.58;;;7.60;99.90;;;;;;5036286;28;20433;-72
2022/10/01 01:39:32;;;;;;;24.88;22.25;;;7.60;99.90;;;;;;5054343;28;20021;-71
2022/10/01 01:42:02;;;;;;;26.35;21.85;;;7.60;99.90;;;;;;5054262;28;20040;-71
2022/10/01 01:44:34;;;;;;;24.70;21.83;;;7.50;99.90;;;;;;5054494;28;20024;-72
2022/10/01 01:47:00;;;;;;;25.92;22.95;;;7.50;99.90;;;;;;5053948;28;20036;-70
2022/10/01 01:49:26;;;;;;;27.85;23.30;;;7.50;99.90;;;;;;5036226;28;20025;-72
2022/10/01 01:52:03;;;;;;;25.58;22.27;;;7.50;99.90;;;;;;5054005;28;20082;-72
2022/10/01 01:54:30;;;;;;;25.38;22.60;;;7.50;99.90;;;;;;5054077;28;20495;-73
2022/10/01 01:56:57;;;;;;;26.38;23.08;;;7.50;99.90;;;;;;5053746;28;20024;-73
2022/10/01 01:59:24;;;;;;;26.05;22.83;;;7.50;99.90;;;;;;5053839;28;20025;-72
2022/10/01 02:01:50;;;;;;;26.55;22.52;;;7.50;99.90;;;;;;5053938;28;20036;-73
2022/10/01 02:04:22;;;;;;;24.80;21.27;;;7.50;99.90;;;;;;5053804;28;20441;-72
2022/10/01 02:07:15;;;;;;;25.63;22.30;;;7.50;99.90;;;;;;5051942;28;20032;-72
2022/10/01 02:10:02;;;;;;;24.30;21.30;;;7.50;99.90;;;;;;5052456;28;20052;-71
2022/10/01 02:12:36;;;;;;;;;;;7.50;99.90;;;;;;5054279;28;20025;-71
2022/10/01 02:15:31;;;;;;;26.80;21.77;;;7.50;99.90;;;;;;5035731;28;19954;-72
2022/10/01 02:18:26;;;;;;;26.52;23.65;;;7.40;99.90;;;;;;5053200;28;20100;-72
2022/10/01 02:21:02;;;;;;;26.52;22.95;;;7.40;99.90;;;;;;5053450;28;20032;-73
2022/10/01 02:23:35;;;;;;;25.85;23.00;;;7.40;99.90;;;;;;5035643;28;20022;-71
2022/10/01 02:26:09;;;;;;;25.75;23.02;;;7.30;99.90;;;;;;5053369;28;20162;-72
2022/10/01 02:28:38;;;;;;;28.00;23.80;;;7.30;99.90;;;;;;5053096;28;20086;-72
2022/10/01 02:31:04;;;;;;;27.67;24.13;;;7.30;99.90;;;;;;5053400;28;20025;-73
2022/10/01 02:33:32;;;;;;;26.65;23.80;;;7.30;99.90;;;;;;5053252;28;20177;-73
2022/10/01 02:36:00;;;;;;;26.33;22.13;;;7.30;99.90;;;;;;5053300;28;20021;-74
2022/10/01 02:38:27;;;;;;;25.98;23.13;;;7.20;99.90;;;;;;5035168;28;20028;-73
2022/10/01 02:40:57;;;;;;;28.30;23.92;;;7.30;99.90;;;;;;5053157;28;20025;-74
2022/10/01 02:43:32;;;;;;;29.92;23.65;;;7.20;99.90;;;;;;5035273;28;20034;-73
2022/10/01 02:46:04;;;;;;;27.50;24.40;;;7.30;99.90;;;;;;5052381;28;20052;-73
2022/10/01 02:48:30;;;;;;;27.27;23.05;;;7.20;99.90;;;;;;5052541;28;20029;-73
2022/10/01 02:51:17;;;;;;;27.38;23.67;;;7.30;99.90;;;;;;5035029;28;20536;-74
2022/10/01 02:53:48;;;;;;;29.15;25.42;;;7.30;99.90;;;;;;5052774;28;20028;-73
2022/10/01 02:57:21;;;;;;;26.00;23.20;;;7.40;99.90;;;;;;5052938;28;20056;-74
2022/10/01 02:58:59;;;;;;;27.35;23.25;;;7.40;99.90;;;;;;5052375;28;20048;-74
2022/10/01 03:01:25;;;;;;;29.35;23.98;;;7.40;99.90;;;;;;5052639;28;20471;-73
2022/10/01 03:03:52;;;;;;;26.88;23.98;;;7.40;99.90;;;;;;5052567;28;20032;-72
2022/10/01 03:06:18;;;;;;;26.55;23.02;;;7.40;99.90;;;;;;5052535;28;20027;-72
2022/10/01 03:08:43;;;;;;;28.80;23.02;;;7.50;99.90;;;;;;5052343;28;20451;-72
2022/10/01 03:11:09;;;;;;;26.95;24.13;;;7.40;99.90;;;;;;5034538;28;20039;-72
2022/10/01 03:13:35;;;;;;;25.83;23.13;;;7.50;99.90;;;;;;5052373;28;20036;-72
2022/10/01 03:16:01;;;;;;;26.08;23.38;;;7.50;99.90;;;;;;5052490;28;20055;-73
2022/10/01 03:18:26;;;;;;;27.77;23.20;;;7.50;99.90;;;;;;5051953;28;20048;-72
2022/10/01 03:20:52;;;;;;;26.00;22.58;;;7.60;99.90;;;;;;5052585;28;20029;-72
2022/10/01 03:23:17;;;;;;;27.75;24.73;;;7.50;99.90;;;;;;5051092;28;20033;-72
2022/10/01 03:25:43;;;;;;;29.90;24.08;;;7.60;99.90;;;;;;5034407;28;20060;-72
2022/10/01 03:28:08;;;;;;;27.05;22.90;;;7.60;99.90;;;;;;5051908;28;20025;-72
2022/10/01 03:30:34;;;;;;;28.55;23.52;;;7.60;99.90;;;;;;5052324;28;20053;-72
2022/10/01 03:33:00;;;;;;;26.48;23.10;;;7.60;99.90;;;;;;5052074;28;20029;-72
2022/10/01 03:35:25;;;;;;;25.85;22.88;;;7.60;99.90;;;;;;5051969;28;20106;-74
2022/10/01 03:37:51;;;;;;;26.45;21.95;;;7.60;99.90;;;;;;5051788;28;20021;-73
2022/10/01 03:40:17;;;;;;;27.10;22.92;;;7.60;99.90;;;;;;5052109;28;20465;-73
2022/10/01 03:42:42;;;;;;;24.52;21.83;;;7.60;99.90;;;;;;5051878;28;20104;-73
2022/10/01 03:45:08;;;;;;;24.63;21.88;;;7.60;99.90;;;;;;5052020;28;20029;-72
2022/10/01 03:47:34;;;;;;;25.80;22.58;;;7.60;99.90;;;;;;5051518;28;20079;-72
2022/10/01 03:49:59;;;;;;;28.60;22.88;;;7.60;99.90;;;;;;5051797;28;20062;-72
2022/10/01 03:52:25;;;;;;;27.25;23.15;;;7.60;99.90;;;;;;5051567;28;20382;-72
2022/10/01 03:54:50;;;;;;;29.02;22.55;;;7.60;99.90;;;;;;5051723;28;20095;-72
2022/10/01 03:57:16;;;;;;;26.23;21.92;;;7.60;99.90;;;;;;5051262;28;20040;-73
2022/10/01 03:59:41;;;;;;;25.42;21.73;;;7.60;99.90;;;;;;5033847;28;20028;-74
2022/10/01 04:02:07;;;;;;;25.50;22.83;;;7.60;99.90;;;;;;5051468;28;20029;-73
2022/10/01 04:04:33;;;;;;;23.85;21.02;;;7.60;99.90;;;;;;5033668;28;20108;-73
2022/10/01 04:06:58;;;;;;;25.92;22.13;;;7.50;99.90;;;;;;5051433;28;20035;-72
2022/10/01 04:09:24;;;;;;;26.92;23.15;;;7.50;99.90;;;;;;5033552;28;20025;-73
2022/10/01 04:11:49;;;;;;;27.00;22.40;;;7.50;99.90;;;;;;5033560;28;20067;-73
2022/10/01 04:14:15;;;;;;;27.15;23.50;;;7.50;99.90;;;;;;5051409;28;20096;-72
2022/10/01 04:16:40;;;;;;;26.15;21.85;;;7.60;99.90;;;;;;5051203;28;20029;-73
2022/10/01 04:19:06;;;;;;;27.63;24.02;;;7.50;99.90;;;;;;5051018;28;20033;-73
2022/10/01 04:21:31;;;;;;;24.80;21.40;;;7.50;99.90;;;;;;5051335;28;20033;-73
2022/10/01 04:23:58;;;;;;;27.23;23.98;;;7.50;99.90;;;;;;5051382;28;20036;-72
2022/10/01 04:26:24;;;;;;;29.65;23.10;;;7.50;99.90;;;;;;5051338;28;20045;-72
2022/10/01 04:28:49;;;;;;;25.92;22.70;;;7.50;99.90;;;;;;5033204;28;20064;-72
2022/10/01 04:31:24;;;;;;;27.83;23.50;;;7.50;99.90;;;;;;5051232;28;20479;-73
2022/10/01 04:33:51;;;;;;;27.42;21.98;;;7.40;99.90;;;;;;5051187;28;20592;-71
2022/10/01 04:36:16;;;;;;;27.48;23.85;;;7.40;99.90;;;;;;5051243;28;20104;-72
2022/10/01 04:38:42;;;;;;;27.88;23.58;;;7.40;99.90;;;;;;5033021;28;20049;-72
2022/10/01 04:41:08;;;;;;;27.30;23.33;;;7.40;99.90;;;;;;5051343;28;20099;-71
2022/10/01 04:43:34;;;;;;;27.02;23.90;;;7.30;99.90;;;;;;5051143;28;20424;-70
2022/10/01 04:45:59;;;;;;;28.27;23.67;;;7.40;99.90;;;;;;5051238;28;20068;-72
2022/10/01 04:48:25;;;;;;;30.10;24.20;;;7.40;99.90;;;;;;5033043;28;20388;-73
2022/10/01 04:50:51;;;;;;;27.13;22.80;;;7.30;99.90;;;;;;5049888;28;20044;-73
2022/10/01 04:53:17;;;;;;;27.88;23.67;;;7.30;99.90;;;;;;5051083;28;20475;-73
2022/10/01 04:55:42;;;;;;;29.23;23.77;;;7.30;99.90;;;;;;5033133;28;20043;-73
2022/10/01 04:58:08;;;;;;;29.15;23.75;;;7.30;99.90;;;;;;5050677;28;20029;-72
2022/10/01 05:00:34;;;;;;;29.63;26.40;;;7.30;99.90;;;;;;5050783;28;20029;-72
2022/10/01 05:03:00;;;;;;;32.08;25.95;;;7.30;99.90;;;;;;5051091;28;20036;-72
2022/10/01 05:05:26;;;;;;;30.75;24.48;;;7.20;99.90;;;;;;5033282;28;20471;-73
2022/10/01 05:07:52;;;;;;;29.52;23.88;;;7.20;99.90;;;;;;5050843;28;20029;-72
2022/10/01 05:10:20;;;;;;;28.75;23.17;;;7.20;99.90;;;;;;5035133;28;20120;-73
2022/10/01 05:12:46;;;;;;;26.83;23.17;;;7.30;99.90;;;;;;5054633;28;20032;-74
2022/10/01 05:15:13;;;;;;;26.63;21.70;;;7.30;99.90;;;;;;5036850;28;20021;-75
2022/10/01 05:17:38;;;;;;;27.92;24.92;;;7.30;99.90;;;;;;5054555;28;20028;-73
2022/10/01 05:20:06;;;;;;;27.85;23.25;;;7.30;99.90;;;;;;5053772;28;20414;-73
2022/10/01 05:22:32;;;;;;;28.23;23.63;;;7.40;99.90;;;;;;5054611;28;20021;-73
2022/10/01 05:24:59;;;;;;;26.23;22.23;;;7.40;99.90;;;;;;5054604;28;20467;-74
2022/10/01 05:27:25;;;;;;;27.52;22.55;;;7.40;99.90;;;;;;5054481;28;20103;-74
2022/10/01 05:29:51;;;;;;;27.38;22.20;;;7.30;99.90;;;;;;5054515;28;20064;-73
2022/10/01 05:32:17;;;;;;;25.27;22.10;;;7.30;99.90;;;;;;5036618;28;20051;-74
2022/10/01 05:34:42;;;;;;;27.35;23.17;;;7.30;99.90;;;;;;5054349;28;20055;-73
2022/10/01 05:37:08;;;;;;;25.85;22.23;;;7.30;99.90;;;;;;5054210;28;20379;-74
2022/10/01 05:39:33;;;;;;;28.20;22.48;;;7.30;99.90;;;;;;5054322;28;20032;-75
2022/10/01 05:42:01;;;;;;;29.42;23.90;;;7.40;99.90;;;;;;5052983;28;20474;-74
2022/10/01 05:44:27;;;;;;;28.10;24.25;;;7.40;99.90;;;;;;5054312;28;20025;-73
2022/10/01 05:46:53;;;;;;;26.40;22.98;;;7.40;99.90;;;;;;5036049;28;20119;-74
2022/10/01 05:49:19;;;;;;;27.63;22.75;;;7.40;99.90;;;;;;5054125;28;20067;-73
2022/10/01 05:51:45;;;;;;;26.80;23.05;;;7.40;99.90;;;;;;5054030;28;20025;-74
2022/10/01 05:54:11;;;;;;;58.90;45.53;;;7.40;99.90;;;;;;5054051;28;20056;-74
2022/10/01 05:56:37;;;;;;;38.88;30.42;;;7.50;99.90;;;;;;5054042;28;20103;-73
2022/10/01 05:59:03;;;;;;;80.45;53.83;;;7.50;99.90;;;;;;5053742;28;20052;-74
2022/10/01 06:01:31;;;;;;;57.65;40.97;;;7.60;99.90;;;;;;5036128;28;20051;-74
2022/10/01 06:03:56;;;;;;;105.88;69.97;;;7.60;99.90;;;;;;5053899;28;20029;-74
2022/10/01 06:06:23;;;;;;;47.05;33.05;;;7.60;99.90;;;;;;5053800;28;20032;-74
2022/10/01 06:08:49;;;;;;;38.60;29.83;;;7.70;99.90;;;;;;5035688;28;20021;-74
2022/10/01 06:11:15;;;;;;;23.52;18.65;;;7.70;99.90;;;;;;5053606;28;20101;-75
2022/10/01 06:13:43;;;;;;;21.58;18.48;;;7.80;99.90;;;;;;5053538;28;20470;-75
2022/10/01 06:16:10;;;;;;;20.60;17.92;;;7.90;99.90;;;;;;5053640;28;20203;-73
2022/10/01 06:18:35;;;;;;;20.33;18.23;;;7.90;99.90;;;;;;5053500;28;20033;-73
2022/10/01 06:21:01;;;;;;;19.15;17.05;;;8.00;99.90;;;;;;5052259;28;20031;-74
2022/10/01 06:23:27;;;;;;;19.15;16.55;;;8.00;99.90;;;;;;5053697;28;20482;-74
2022/10/01 06:25:53;;;;;;;22.40;17.60;;;8.00;99.90;;;;;;5053242;28;20418;-74
2022/10/01 06:28:19;;;;;;;19.45;16.65;;;8.10;99.90;;;;;;5053141;28;20055;-73
2022/10/01 06:30:46;;;;;;;18.88;16.60;;;8.10;99.90;;;;;;5053418;28;20079;-74
2022/10/01 06:33:14;;;;;;;18.02;15.88;;;8.10;99.90;;;;;;5053052;28;20471;-74
2022/10/01 06:35:46;;;;;;;18.15;15.68;;;8.10;99.90;;;;;;5053169;28;20483;-74
2022/10/01 06:38:12;;;;;;;22.08;16.13;;;8.10;99.90;;;;;;5053097;28;20024;-73
2022/10/01 06:40:38;;;;;;;18.73;16.17;;;8.20;99.90;;;;;;5053247;28;20029;-74
2022/10/01 06:43:06;;;;;;;18.17;15.43;;;8.20;99.90;;;;;;5035306;28;20052;-74
2022/10/01 06:45:39;;;;;;;16.73;14.82;;;8.30;99.90;;;;;;5053145;28;20021;-74
2022/10/01 06:48:05;;;;;;;20.25;16.45;;;8.20;99.90;;;;;;5052887;28;20025;-74
2022/10/01 06:50:32;;;;;;;18.98;16.48;;;8.30;99.90;;;;;;5053116;28;20059;-75
2022/10/01 06:52:59;;;;;;;20.52;18.17;;;8.30;99.90;;;;;;5053059;28;20021;-74
2022/10/01 06:55:27;;;;;;;18.70;16.70;;;8.30;99.90;;;;;;5051601;28;20025;-74
2022/10/01 06:58:01;;;;;;;19.73;16.25;;;8.30;99.90;;;;;;5035088;28;20027;-75
2022/10/01 07:00:29;;;;;;;20.30;16.50;;;8.40;99.90;;;;;;5052960;28;20025;-74
2022/10/01 07:02:55;;;;;;;18.73;16.33;;;8.40;99.90;;;;;;5052890;28;20032;-74
2022/10/01 07:05:21;;;;;;;21.05;17.65;;;8.40;99.90;;;;;;5052778;28;20028;-74
2022/10/01 07:07:47;;;;;;;20.73;16.95;;;8.40;99.90;;;;;;5052471;28;20052;-75
2022/10/01 07:10:15;;;;;;;19.83;16.42;;;8.40;99.90;;;;;;5051422;28;20021;-74
2022/10/01 07:12:41;;;;;;;20.35;16.50;;;8.50;99.90;;;;;;5034720;28;20108;-75
2022/10/01 07:15:08;;;;;;;19.00;17.02;;;8.50;99.90;;;;;;5034703;28;20025;-77
2022/10/01 07:17:41;;;;;;;20.33;18.08;;;8.50;99.90;;;;;;5052382;28;20072;-72
2022/10/01 07:20:07;;;;;;;21.92;19.63;;;8.50;99.90;;;;;;5052535;28;20079;-75
2022/10/01 07:22:33;;;;;;;20.02;17.73;;;8.50;99.90;;;;;;5032900;28;20395;-75
2022/10/01 07:24:58;;;;;;;20.42;18.17;;;8.50;99.90;;;;;;5034407;28;20071;-75
2022/10/01 07:27:24;;;;;;;19.98;17.17;;;8.50;99.90;;;;;;5050898;28;20017;-74
2022/10/01 07:29:49;;;;;;;20.00;16.73;;;8.40;99.90;;;;;;5051372;28;20037;-74
2022/10/01 07:32:15;;;;;;;20.45;17.13;;;8.40;99.90;;;;;;5051724;28;20598;-74
2022/10/01 07:34:41;;;;;;;20.48;17.95;;;8.40;99.90;;;;;;5052092;28;20395;-74
2022/10/01 07:37:07;;;;;;;22.08;17.40;;;8.40;99.90;;;;;;5050639;28;20025;-74
2022/10/01 07:39:34;;;;;;;21.55;17.63;;;8.40;99.90;;;;;;5052013;28;20017;-74
2022/10/01 07:41:59;;;;;;;21.42;18.73;;;8.40;99.90;;;;;;5052122;28;20360;-75
2022/10/01 07:44:28;;;;;;;22.25;17.48;;;8.40;99.90;;;;;;5052188;28;20109;-75
2022/10/01 07:46:55;;;;;;;24.13;18.48;;;8.40;99.90;;;;;;5051741;28;20021;-75
2022/10/01 07:49:20;;;;;;;23.05;19.50;;;8.40;99.90;;;;;;5051963;28;20024;-73
2022/10/01 07:51:47;;;;;;;23.08;18.58;;;8.30;99.90;;;;;;5034064;28;20037;-75
2022/10/01 07:54:13;;;;;;;25.80;19.80;;;8.30;99.90;;;;;;5051958;28;20017;-75
2022/10/01 07:56:38;;;;;;;23.65;18.52;;;8.30;99.90;;;;;;5033829;28;20028;-76
2022/10/01 07:59:04;;;;;;;27.63;21.15;;;8.30;99.90;;;;;;5051666;28;20075;-75
2022/10/01 08:01:32;;;;;;;26.80;23.10;;;8.20;99.90;;;;;;5051878;28;20025;-75
2022/10/01 08:03:58;;;;;;;28.70;24.67;;;8.30;99.90;;;;;;5051849;28;20104;-75
2022/10/01 08:06:23;;;;;;;41.50;31.83;;;8.30;99.90;;;;;;5051563;28;20100;-75
2022/10/01 08:08:49;;;;;;;28.33;23.92;;;8.30;99.90;;;;;;5051440;28;20398;-75
2022/10/01 08:11:16;;;;;;;26.40;21.65;;;8.30;99.90;;;;;;5051639;28;20025;-76
2022/10/01 08:13:44;;;;;;;23.38;19.95;;;8.30;99.90;;;;;;5051717;28;20024;-75
2022/10/01 08:16:10;;;;;;;22.50;18.98;;;8.30;99.90;;;;;;5050269;28;20025;-75
2022/10/01 08:18:37;;;;;;;23.00;19.95;;;8.30;99.90;;;;;;5033318;28;20053;-75
2022/10/01 08:21:02;;;;;;;24.67;19.88;;;8.30;99.90;;;;;;5051723;28;20048;-75
2022/10/01 08:23:32;;;;;;;25.30;21.30;;;8.40;99.90;;;;;;5051534;28;20021;-75
2022/10/01 08:26:03;;;;;;;26.50;21.08;;;8.30;99.90;;;;;;5033629;28;20021;-76
2022/10/01 08:28:29;;;;;;;26.75;22.10;;;8.40;99.90;;;;;;5051309;28;20028;-75
2022/10/01 08:30:55;;;;;;;34.70;28.02;;;8.30;99.90;;;;;;5033657;28;20021;-75
2022/10/01 08:33:21;;;;;;;33.10;24.60;;;8.30;99.90;;;;;;5034063;28;20106;-76
2022/10/01 08:35:47;;;;;;;29.08;23.60;;;8.30;99.90;;;;;;5051373;28;20033;-77
2022/10/01 08:38:18;;;;;;;26.45;21.90;;;8.30;99.90;;;;;;5033387;28;20505;-77
2022/10/01 08:40:47;;;;;;;27.50;22.55;;;8.40;99.90;;;;;;5033680;28;20021;-75
2022/10/01 08:43:37;;;;;;;27.85;22.38;;;8.30;99.90;;;;;;5033393;28;20024;-74
2022/10/01 08:46:16;;;;;;;25.13;20.67;;;8.40;99.90;;;;;;5042257;28;20025;-75
2022/10/01 08:48:54;;;;;;;27.73;21.77;;;8.40;99.90;;;;;;5055044;28;20032;-76
2022/10/01 08:51:35;;;;;;;30.65;22.35;;;8.40;99.90;;;;;;5055363;28;20025;-75
2022/10/01 08:54:27;;;;;;;29.38;21.45;;;8.40;99.90;;;;;;5055527;28;20033;-75
2022/10/01 08:56:54;;;;;;;28.10;20.88;;;8.40;99.90;;;;;;5055215;28;20021;-75
2022/10/01 08:59:41;;;;;;;24.85;19.65;;;8.40;99.90;;;;;;5055190;28;20029;-75
2022/10/01 09:02:23;;;;;;;;;;;8.40;99.90;;;;;;5037724;28;20372;-76
2022/10/01 09:04:53;;;;;;;26.35;20.50;;;8.40;99.90;;;;;;5036853;28;19905;-75
2022/10/01 09:08:04;;;;;;;23.15;19.25;;;8.50;99.90;;;;;;5053556;28;20513;-74
2022/10/01 09:10:43;;;;;;;26.73;20.83;;;8.40;99.90;;;;;;5013139;28;20048;-76
2022/10/01 09:13:14;;;;;;;26.75;20.67;;;8.40;99.90;;;;;;5053694;28;20072;-75
2022/10/01 09:16:01;;;;;;;33.53;25.13;;;8.40;99.90;;;;;;5054696;28;20024;-75
2022/10/01 09:18:29;;;;;;;40.92;27.85;;;8.40;99.90;;;;;;5042156;28;20017;-75
2022/10/01 09:20:57;;;;;;;42.40;27.65;;;8.50;99.90;;;;;;5036904;28;20021;-75
2022/10/01 09:23:29;;;;;;;30.88;24.02;;;8.50;99.90;;;;;;5054526;28;20052;-75
2022/10/01 09:25:58;;;;;;;26.63;21.13;;;8.50;99.90;;;;;;5054215;28;20075;-73
2022/10/01 09:28:32;;;;;;;27.42;22.02;;;8.60;99.90;;;;;;5036363;28;20399;-74
2022/10/01 09:31:02;;;;;;;24.33;19.73;;;8.60;99.90;;;;;;5054414;28;20017;-74
2022/10/01 09:33:33;;;;;;;21.77;17.77;;;8.60;99.90;;;;;;5036295;28;20055;-74
2022/10/01 09:36:03;;;;;;;22.02;17.92;;;8.60;99.90;;;;;;5054176;28;20025;-74
2022/10/01 09:38:41;;;;;;;24.90;21.02;;;8.60;99.90;;;;;;5054058;28;20017;-74
2022/10/01 09:41:09;;;;;;;20.35;17.13;;;8.60;99.90;;;;;;5048742;28;20100;-74
2022/10/01 09:43:37;;;;;;;30.02;25.63;;;8.60;99.90;;;;;;5036277;28;20033;-74
2022/10/01 09:46:12;;;;;;;21.20;18.95;;;8.60;99.90;;;;;;5054172;28;20056;-73
2022/10/01 09:48:51;;;;;;;23.98;18.25;;;8.50;99.90;;;;;;5053916;28;20506;-74
2022/10/01 09:51:37;;;;;;;18.00;15.82;;;8.60;99.90;;;;;;5036356;28;20083;-74
2022/10/01 09:54:20;;;;;;;17.83;15.88;;;8.50;99.90;;;;;;5046505;28;20051;-74
2022/10/01 09:56:56;;;;;;;18.75;16.75;;;8.50;99.90;;;;;;5053535;28;20063;-74
2022/10/01 09:59:29;;;;;;;20.58;18.05;;;8.60;99.90;;;;;;5052768;28;20053;-74
2022/10/01 10:02:00;;;;;;;22.17;19.75;;;8.50;99.90;;;;;;5054067;28;20021;-74
2022/10/01 10:04:26;;;;;;;21.98;19.60;;;8.50;99.90;;;;;;5052867;28;20025;-74
2022/10/01 10:07:01;;;;;;;21.63;18.80;;;8.50;99.90;;;;;;5053547;28;20486;-74
2022/10/01 10:09:36;;;;;;;23.00;20.52;;;8.50;99.90;;;;;;5053703;28;20035;-74
2022/10/01 10:12:02;;;;;;;21.45;19.08;;;8.60;99.90;;;;;;5053616;28;20092;-74
2022/10/01 10:14:32;;;;;;;21.83;17.95;;;8.60;99.90;;;;;;5053463;28;20491;-75
2022/10/01 10:17:11;;;;;;;21.92;17.55;;;8.60;99.90;;;;;;5053449;28;20025;-75
2022/10/01 10:19:37;;;;;;;19.48;17.38;;;8.60;99.90;;;;;;5053460;28;20399;-75
2022/10/01 10:22:12;;;;;;;20.83;17.70;;;8.70;99.90;;;;;;5053485;28;20017;-74
2022/10/01 10:24:37;;;;;;;23.85;20.00;;;8.70;99.90;;;;;;5053496;28;20024;-74
2022/10/01 10:27:19;;;;;;;27.52;21.88;;;8.70;99.90;;;;;;5053298;28;20105;-74
2022/10/01 10:29:45;;;;;;;26.55;22.85;;;8.70;99.90;;;;;;5039831;28;20029;-76
2022/10/01 10:32:23;;;;;;;20.50;17.80;;;8.70;99.90;;;;;;5053339;28;20065;-74
2022/10/01 10:34:51;;;;;;;24.48;19.98;;;8.70;99.90;;;;;;5053443;28;20108;-75
2022/10/01 10:37:25;;;;;;;22.65;19.33;;;8.80;99.90;;;;;;5053131;28;20017;-74
2022/10/01 10:39:52;;;;;;;30.25;26.70;;;8.80;99.90;;;;;;5045316;28;20039;-75
2022/10/01 10:42:18;;;;;;;28.30;23.88;;;8.80;99.90;;;;;;5035082;28;20056;-75
2022/10/01 10:44:48;;;;;;;26.33;23.48;;;8.70;99.90;;;;;;5053358;28;20109;-74
2022/10/01 10:47:16;;;;;;;24.50;21.90;;;8.70;99.90;;;;;;5035148;28;20398;-75
2022/10/01 10:50:04;;;;;;;18.88;16.88;;;8.80;99.90;;;;;;5053090;28;20017;-75
2022/10/01 10:52:35;;;;;;;26.42;21.05;;;8.80;99.90;;;;;;5052823;28;20486;-75
2022/10/01 10:55:19;;;;;;;20.65;18.42;;;8.90;99.90;;;;;;5052977;28;20060;-74
2022/10/01 10:57:45;;;;;;;23.88;19.02;;;8.80;99.90;;;;;;5034777;28;20021;-75
2022/10/01 11:00:17;;;;;;;20.90;18.05;;;8.90;99.90;;;;;;5052942;28;20096;-75
2022/10/01 11:02:52;;;;;;;19.10;16.38;;;8.90;99.90;;;;;;5051708;28;20017;-75
2022/10/01 11:05:21;;;;;;;18.52;16.48;;;8.90;99.90;;;;;;5052907;28;20035;-75
2022/10/01 11:07:50;;;;;;;21.38;17.08;;;9.00;99.90;;;;;;5051680;28;20021;-75
2022/10/01 11:10:40;;;;;;;21.10;17.25;;;9.00;99.90;;;;;;5039658;28;20033;-71
2022/10/01 11:13:17;;;;;;;17.08;15.23;;;9.00;99.90;;;;;;5052713;28;20032;-74
2022/10/01 11:16:16;;;;;;;16.27;14.48;;;9.10;99.90;;;;;;5052485;28;20032;-75
2022/10/01 11:19:14;;;;;;;23.13;16.13;;;9.20;99.90;;;;;;5060174;22;20029;-74
2022/10/01 11:22:07;;;;;;;16.95;14.45;;;9.20;99.90;;;;;;5061092;28;20552;-74
2022/10/01 11:24:48;;;;;;;16.88;13.70;;;9.20;99.90;;;;;;5092542;28;20024;-74
2022/10/01 11:27:35;;;;;;;17.67;13.88;;;9.30;99.90;;;;;;5092377;28;20058;-74
2022/10/01 11:30:00;;;;;;;14.32;12.50;;;9.40;99.90;;;;;;5105601;28;20032;-74
2022/10/01 11:32:50;;;;;;;15.02;12.60;;;9.40;99.90;;;;;;5112786;28;20024;-73
2022/10/01 11:35:34;;;;;;;13.38;11.10;;;9.40;99.90;;;;;;5112579;28;20020;-73
2022/10/01 11:38:12;;;;;;;13.45;11.40;;;9.40;99.90;;;;;;5112475;28;20024;-73
2022/10/01 11:40:44;;;;;;;13.57;11.88;;;9.40;99.90;;;;;;5094176;28;20058;-74
2022/10/01 11:43:45;;;;;;;10.35;9.30;;;9.40;99.90;;;;;;5112487;28;20062;-73
2022/10/01 11:46:24;;;;;;;16.88;12.52;;;9.40;99.90;;;;;;5058244;28;20601;-73
2022/10/01 11:48:56;;;;;;;23.10;16.13;;;9.50;99.90;;;;;;5112063;28;20031;-72
2022/10/01 11:51:33;;;;;;;14.50;11.75;;;9.50;99.90;;;;;;5112683;28;20012;-73
2022/10/01 11:54:05;;;;;;;10.02;8.60;;;9.60;99.90;;;;;;5113958;28;20025;-75
2022/10/01 11:59:28;;;;;;;12.40;10.65;;;9.50;99.90;;;;;;5097804;28;20555;-74
2022/10/01 12:02:14;;;;;;;13.15;11.75;;;9.60;99.90;;;;;;5108669;28;20481;-74
2022/10/01 12:04:54;;;;;;;19.27;12.77;;;9.50;99.90;;;;;;5109850;28;20023;-74
2022/10/01 12:07:19;;;;;;;14.88;13.23;;;9.60;99.90;;;;;;5082747;28;20036;-74
2022/10/01 12:09:54;;;;;;;21.58;16.05;;;9.60;99.90;;;;;;5093615;28;20034;-74
2022/10/01 12:12:25;;;;;;;15.98;12.95;;;9.60;99.90;;;;;;5112118;28;20102;-75
2022/10/01 12:15:18;;;;;;;13.40;10.80;;;9.60;99.90;;;;;;5112055;28;20061;-74
2022/10/01 12:17:52;;;;;;;12.20;11.00;;;9.60;99.90;;;;;;5107849;28;20565;-74
2022/10/01 12:20:34;;;;;;;15.02;11.02;;;9.70;99.90;;;;;;5081660;28;20401;-74
2022/10/01 12:23:04;;;;;;;13.90;10.18;;;9.70;99.90;;;;;;5096964;28;20024;-74
2022/10/01 12:25:45;;;;;;;8.73;7.35;;;9.70;99.90;;;;;;5112089;28;20052;-74
2022/10/01 12:28:30;;;;;;;7.13;6.43;;;9.70;99.90;;;;;;5112118;28;20024;-74
2022/10/01 12:31:16;;;;;;;6.40;5.57;;;9.70;99.90;;;;;;5093945;28;20120;-74
2022/10/01 12:34:37;;;;;;;4.40;3.88;;;9.80;99.90;;;;;;5094047;28;20108;-73
2022/10/01 12:37:40;;;;;;;12.50;9.60;;;9.90;99.90;;;;;;5057474;28;20040;-74
2022/10/01 12:40:25;;;;;;;7.63;5.82;;;9.90;99.90;;;;;;5085252;28;20028;-74
2022/10/01 12:43:27;;;;;;;4.25;3.85;;;10.00;99.90;;;;;;5081206;28;20110;-74
2022/10/01 12:46:04;;;;;;;3.85;3.50;;;10.00;99.90;;;;;;5112041;28;20020;-76
2022/10/01 12:48:35;;;;;;;4.43;3.92;;;10.00;99.90;;;;;;5111428;28;20024;-74
2022/10/01 12:51:19;;;;;;;5.60;5.10;;;10.10;99.90;;;;;;5111931;28;20130;-75
2022/10/01 12:54:22;;;;;;;5.07;4.57;;;10.10;99.90;;;;;;5111739;28;20028;-74
2022/10/01 12:56:54;;;;;;;4.22;3.83;;;10.10;99.90;;;;;;5074045;28;20035;-74
2022/10/01 12:59:49;;;;;;;4.50;3.55;;;10.20;99.90;;;;;;5111785;28;20090;-74
2022/10/01 13:02:42;;;;;;;5.85;4.80;;;10.30;99.90;;;;;;5111799;28;20107;-74